METAR AND TAF INFORMATION
METAR FOR LHBP
ADDS - METARS form results

(2349 UTC 20 April 2018)
Data provider http://aviationweather.gov/adds/metars/
 
METAR text: LHBP 202330Z VRB03KT CAVOK 08/06 Q1023 NOSIG
Conditions at: LHBP (BUDAPEST/FERIHEG, HU) observed 2330 UTC 20 April 2018
Temperature: 8.0°C (46°F)
Dewpoint: 6.0°C (43°F) [RH = 87%]
Pressure (altimeter): 30.21 inches Hg (1023.0 mb)
Winds: variable direction winds at 3 MPH (3 knots; 1.6 m/s)
Visibility: 6 or more miles (10+ km)
Ceiling: ceiling and visibility are OK
Clouds: unknown
Weather: no significant weather observed at this time

METAR text: LHBP 202300Z 00000KT CAVOK 09/06 Q1023 NOSIG
Conditions at: LHBP (BUDAPEST/FERIHEG, HU) observed 2300 UTC 20 April 2018
Temperature: 9.0°C (48°F)
Dewpoint: 6.0°C (43°F) [RH = 81%]
Pressure (altimeter): 30.21 inches Hg (1023.0 mb)
Winds: calm
Visibility: 6 or more miles (10+ km)
Ceiling: ceiling and visibility are OK
Clouds: unknown
Weather: no significant weather observed at this time

Forecast for: LHBP (BUDAPEST/FERIHEG, HU)
Text: TAF LHBP 202315Z 2100/2124 VRB03KT CAVOK
Forecast period: 0000 to 0800 UTC 21 April 2018
Forecast type: FROM: standard forecast or significant change
Winds: variable direction winds at 3 MPH (3 knots; 1.6 m/s)
Visibility: 6 or more miles (10+ km)
Clouds: not forecast
Weather: NSW  (no significant weather)
Forecast for: LHBP (BUDAPEST/FERIHEG, HU)
Text: TAF LHBP 202315Z 2100/2124 VRB03KT CAVOK
Forecast period: 0000 to 0800 UTC 21 April 2018
Forecast type: FROM: standard forecast or significant change
Winds: variable direction winds at 3 MPH (3 knots; 1.6 m/s)
Visibility: 6 or more miles (10+ km)
Clouds: not forecast
Weather: NSW  (no significant weather)
Forecast for: LHBP (BUDAPEST/FERIHEG, HU)
Text: TAF LHBP 202315Z 2100/2124 VRB03KT CAVOK
Forecast period: 0000 to 0300 UTC 21 April 2018
Forecast type: TEMPORARY: The following changes expected for less than half the time period
Winds: from the ENE (70 degrees) at 7 MPH (6 knots; 3.1 m/s)
Weather: no significant weather forecast for this period
Forecast for: LHBP (BUDAPEST/FERIHEG, HU)
Text: TAF LHBP 202315Z 2100/2124 VRB03KT CAVOK
Forecast period: 0000 to 0300 UTC 21 April 2018
Forecast type: TEMPORARY: The following changes expected for less than half the time period
Winds: from the ENE (70 degrees) at 7 MPH (6 knots; 3.1 m/s)
Weather: no significant weather forecast for this period
Forecast for: LHBP (BUDAPEST/FERIHEG, HU)
Text: TAF LHBP 202315Z 2100/2124 VRB03KT CAVOK
Forecast period: 0800 to 2000 UTC 21 April 2018
Forecast type: BECOMING: Conditions expected to become as follows by 1000 UTC 21 April 2018
Winds: from the SW (220 degrees) at 7 MPH (6 knots; 3.1 m/s)
Visibility: 6 or more miles (10+ km)
Weather: NSW  (no significant weather)
Forecast for: LHBP (BUDAPEST/FERIHEG, HU)
Text: TAF LHBP 202315Z 2100/2124 VRB03KT CAVOK
Forecast period: 0800 to 2000 UTC 21 April 2018
Forecast type: BECOMING: Conditions expected to become as follows by 1000 UTC 21 April 2018
Winds: from the SW (220 degrees) at 7 MPH (6 knots; 3.1 m/s)
Visibility: 6 or more miles (10+ km)
Weather: NSW  (no significant weather)
Forecast for: LHBP (BUDAPEST/FERIHEG, HU)
Text: TAF LHBP 202315Z 2100/2124 VRB03KT CAVOK
Forecast period: 2000 UTC 21 April 2018 to 0000 UTC 22 April 2018
Forecast type: BECOMING: Conditions expected to become as follows by 2200 UTC 21 April 2018
Winds: variable direction winds at 3 MPH (3 knots; 1.6 m/s)
Visibility: 6 or more miles (10+ km)
Weather: NSW  (no significant weather)
Forecast for: LHBP (BUDAPEST/FERIHEG, HU)
Text: TAF LHBP 202315Z 2100/2124 VRB03KT CAVOK
Forecast period: 2000 UTC 21 April 2018 to 0000 UTC 22 April 2018
Forecast type: BECOMING: Conditions expected to become as follows by 2200 UTC 21 April 2018
Winds: variable direction winds at 3 MPH (3 knots; 1.6 m/s)
Visibility: 6 or more miles (10+ km)
Weather: NSW  (no significant weather)

 AIRPORT MAP

 RUNWAY INFORMATION
Runway 13L Runway length 12162 ft Runway width 149 ft
Runway elevation 495 ft Runway displaced threshold 0 ft Runway heading 132
Runway 31R Runway length 12162 ft Runway width 149 ft
Runway elevation 417 ft Runway displaced threshold 0 ft Runway heading 312
Runway 13R Runway length 9875 ft Runway width 149 ft
Runway elevation 450 ft Runway displaced threshold 0 ft Runway heading 132
Runway 31L Runway length 9875 ft Runway width 149 ft
Runway elevation 450 ft Runway displaced threshold 0 ft Runway heading 312

 AIRPORT FREQUENCIES
Type ACC Name BUDAPEST A Frequency 129.7 MHZ
Type APP Name DIRECTOR Frequency 119.5 MHZ
Type APRS Name Apron Guid Frequency 122.45 MHZ
Type APRW Name Apron Guid Frequency 131.55 MHZ
Type ATIS Name ATIS Frequency 132.375 MHZ
Type CDC Name Delivery Frequency 134.55 MHZ
Type GND Name GND Frequency 121.9 MHZ
Type TWR Name TWR Frequency 118.1 MHZ

 AIRPORT NEAR NAVIGATION AIDS
Type VOR-DME Name Budapest Frequency 117300 KHZ
Type VOR-DME Name Monor Frequency 112500 KHZ
Type NDB Name Monor Frequency 288 KHZ
Type VOR-DME Name Tapiosap Frequency 115900 KHZ
Type NDB Name Tapiosap Frequency 306 KHZ



v2.6.1